Port Mellon, Canada
Current Conditions -  °F | °C
As of 1:00 AM on Wednesday 28 Jan 2015 (Local Time) from CYVR Reporting Station
Broken Clouds Broken Clouds  
Wind Chill:   Ceiling: 1900
Heat Index:   Visibility: 15mi
Dew Point:   Wind: 5mph
Humidity: 93%   Direction: 220°SW
Pressure: 30.28"   Gusts: NA
Location:  49.52°N, 123.48°W
Report Text: CYVR 280900Z 22004KT 15SM SCT011 BKN019 BKN055 07/06 A3028 RMK SF4SC2SC1 SLP255
Loading
Personal Weather Stations






























Interactive Weather Map New forecast layout! Learn more

10-Day Weather Forecast

Advertisements
Track Severe Weather on mobile